Terminal Aerodrome Forecast
Issued by NWS

Home | Current Version | Previous Version | Text Only | Print | Product List | Glossary On
Versions: 1 2 3 4 5 6 7 8 9 10 11 12 13 14 15 16 17 18
000
FTUS43 KGRB 252340
TAFMTW
TAF
KMTW 252340Z 2600/2624 15010G16KT P6SM OVC100
     FM260700 14010G17KT P6SM VCSH OVC040 WS007/18035KT
      TEMPO 2609/2613 5SM -SHRA BR OVC020
     FM261300 16014KT 5SM SHRA OVC015
     FM261500 16015G21KT 3SM SHRA BR OVC010
      TEMPO 2616/2620 BKN007
     FM262100 19014G20KT 5SM SHRA BR OVC020=

USA.gov is the U.S. government's official web portal to all federal, state and local government web resources and services.